Ana Sayfa
METAR-TAF:

METAR-TAF

Havaalanları :

Adrian, Michigan, Amerika Birleşik Devletleri

Enlem: 41-52-04N, Boylam: 084-04-46W, yükseklik: 244 m

Güncel hava durumu gözlemi

Rapor saat 14:53 UTC de 36 dakika önce yapıldı.
Rüzgar batıdan 5 kt
Sıcaklık 26°C
Nem 65%
Basınç 1015 hPa
Görüş mesafesi: 16.1 km
Açık gökyüzü

METAR: KADG 211453Z AUTO 28005KT 10SM CLR 26/19 A2996 RMK AO2 SLP141 T02560194 53005

Saat: 11:29 (15:29 UTC)


TAF: eksik

4.000'den fazla havaalanı için hava durumu gözlemleri ve tahminleri (METAR ve TAF raporları).

Kullanılabilir istasyonlar harita üzerinde sarı ve kırmızı noktalarla gösterilir.

İstasyonun adını görmek için fareyi noktanın üzerinde gezdirin.

Sonrasında hava gözlem ve tahminlerini görmek için tıklayın.

Haritayı değiştirmek için: yaklaştırmak için siyah artı işaretli yeşil düğmeye ve uzaklaştırmak için de eksi işaretli düğmeye hızla tıklayın; bitişik haritalar için yeşil okları kullanın.


METAR-TAF: